Time;durP1;ratioP1;P1;durP2;ratioP2;P2;SDS_P1;SDS_P2;PMS_P1;PMS_P2;Temp;Humidity;BMP_temperature;BMP_pressure;BME280_temperature;BME280_humidity;BME280_pressure;Samples;Min_cycle;Max_cycle;Signal;HPM_P1;HPM_P2
2022/10/02 00:02:35;;;;;;;12.52;10.05;;;13.00;99.90;;;;;;5065177;28;20707;-80
2022/10/02 00:05:30;;;;;;;11.90;9.32;;;13.00;99.90;;;;;;5073889;28;20302;-80
2022/10/02 00:08:24;;;;;;;13.75;9.45;;;13.00;99.90;;;;;;5072505;28;20236;-80
2022/10/02 00:11:18;;;;;;;11.70;9.18;;;12.80;99.90;;;;;;5066318;28;20579;-80
2022/10/02 00:14:14;;;;;;;10.70;9.32;;;12.90;99.90;;;;;;5064113;28;20227;-81
2022/10/02 00:17:03;;;;;;;12.27;9.93;;;13.10;99.90;;;;;;5071612;28;20224;-80
2022/10/02 00:19:54;;;;;;;11.13;9.07;;;13.00;99.90;;;;;;5076038;28;20299;-80
2022/10/02 00:22:50;;;;;;;11.65;8.82;;;12.90;99.90;;;;;;5059458;28;20239;-80
2022/10/02 00:25:43;;;;;;;13.55;8.80;;;13.00;99.90;;;;;;5073391;28;20312;-81
2022/10/02 00:28:39;;;;;;;11.57;8.63;;;12.90;99.90;;;;;;5073078;28;20231;-80
2022/10/02 00:31:36;;;;;;;9.60;7.63;;;12.90;99.90;;;;;;5070967;28;20235;-80
2022/10/02 00:34:35;;;;;;;10.18;7.43;;;12.90;99.90;;;;;;5068652;28;20239;-80
2022/10/02 00:37:33;;;;;;;9.18;7.43;;;12.90;99.90;;;;;;5068239;28;20235;-81
2022/10/02 00:40:42;;;;;;;11.05;7.75;;;12.80;99.90;;;;;;5056614;28;20750;-80
2022/10/02 00:43:36;;;;;;;12.38;7.88;;;12.70;99.90;;;;;;5072462;28;20290;-80
2022/10/02 00:46:40;;;;;;;10.05;7.47;;;12.80;99.90;;;;;;5060726;28;20717;-81
2022/10/02 00:49:58;;;;;;;10.02;7.80;;;12.80;99.90;;;;;;5066924;28;20228;-80
2022/10/02 00:53:01;;;;;;;8.80;7.57;;;12.80;99.90;;;;;;5059239;28;20220;-79
2022/10/02 00:56:04;;;;;;;11.68;8.13;;;12.80;99.90;;;;;;5059497;28;20234;-81
2022/10/02 00:59:13;;;;;;;9.98;7.38;;;12.90;99.90;;;;;;5071567;28;20261;-80
2022/10/02 01:02:11;;;;;;;9.32;7.72;;;12.80;99.90;;;;;;5055493;28;20615;-80
2022/10/02 01:05:02;;;;;;;11.32;8.07;;;12.80;99.90;;;;;;5056327;28;20717;-82
2022/10/02 01:07:54;;;;;;;11.48;8.20;;;12.90;99.90;;;;;;5052190;28;20221;-80
2022/10/02 01:10:43;;;;;;;10.82;8.73;;;12.90;99.90;;;;;;5060084;28;20330;-79
2022/10/02 01:13:32;;;;;;;10.38;8.48;;;12.80;99.90;;;;;;5055752;28;20231;-79
2022/10/02 01:16:21;;;;;;;12.75;8.13;;;12.90;99.90;;;;;;5067632;28;20690;-81
2022/10/02 01:19:23;;;;;;;13.23;8.65;;;13.00;99.90;;;;;;5067303;28;20231;-81
2022/10/02 01:22:17;;;;;;;11.07;8.55;;;13.00;99.90;;;;;;5054204;28;20227;-82
2022/10/02 01:25:08;;;;;;;10.98;8.82;;;12.80;99.90;;;;;;5063485;28;20296;-81
2022/10/02 01:27:57;;;;;;;14.18;9.38;;;12.80;99.90;;;;;;5055891;28;20225;-80
2022/10/02 01:30:49;;;;;;;15.30;9.07;;;12.90;99.90;;;;;;5058820;28;20696;-80
2022/10/02 01:33:40;;;;;;;11.77;8.90;;;12.90;99.90;;;;;;5068122;28;20296;-78
2022/10/02 01:36:31;;;;;;;15.55;9.20;;;13.00;99.90;;;;;;5059807;28;20220;-77
2022/10/02 01:39:19;;;;;;;9.98;8.80;;;13.00;99.90;;;;;;5061443;28;20292;-78
2022/10/02 01:42:10;;;;;;;10.55;9.30;;;12.90;99.90;;;;;;5058134;28;20742;-77
2022/10/02 01:44:58;;;;;;;13.80;9.63;;;12.90;99.90;;;;;;5070118;28;20227;-79
2022/10/02 01:47:52;;;;;;;10.38;9.20;;;13.00;99.90;;;;;;5070741;28;20227;-79
2022/10/02 01:50:51;;;;;;;10.48;9.32;;;12.90;99.90;;;;;;5057831;28;20239;-76
2022/10/02 01:53:46;;;;;;;12.45;8.68;;;12.90;99.90;;;;;;5058574;28;20209;-78
2022/10/02 01:56:42;;;;;;;12.55;8.77;;;12.80;99.90;;;;;;5068241;28;20224;-78
2022/10/02 01:59:45;;;;;;;10.45;9.00;;;12.90;99.90;;;;;;5056082;28;20243;-77
2022/10/02 02:02:51;;;;;;;10.98;8.77;;;13.00;99.90;;;;;;5065004;28;20734;-77
2022/10/02 02:05:47;;;;;;;12.07;8.82;;;13.00;99.90;;;;;;5058983;28;20223;-78
2022/10/02 02:08:42;;;;;;;12.25;8.50;;;13.00;99.90;;;;;;5056079;28;20813;-78
2022/10/02 02:11:31;;;;;;;10.93;8.65;;;12.90;99.90;;;;;;5058618;28;20243;-77
2022/10/02 02:14:26;;;;;;;10.32;8.80;;;12.70;99.90;;;;;;5055485;28;20238;-77
2022/10/02 02:17:23;;;;;;;11.82;8.77;;;12.80;99.90;;;;;;5056160;28;20224;-77
2022/10/02 02:20:18;;;;;;;11.25;8.63;;;12.70;99.90;;;;;;5052591;28;20225;-78
2022/10/02 02:23:12;;;;;;;11.15;8.50;;;12.90;99.90;;;;;;5054154;28;20240;-78
2022/10/02 02:26:06;;;;;;;11.93;8.40;;;12.90;99.90;;;;;;5049804;28;20227;-78
2022/10/02 02:29:03;;;;;;;10.13;9.07;;;12.90;99.90;;;;;;5063377;28;20707;-77
2022/10/02 02:31:55;;;;;;;11.30;9.07;;;12.90;99.90;;;;;;5058142;28;20220;-77
2022/10/02 02:34:48;;;;;;;10.98;9.07;;;12.90;99.90;;;;;;5056754;28;20225;-76
2022/10/02 02:37:41;;;;;;;11.88;9.40;;;12.90;99.90;;;;;;5052904;28;20263;-77
2022/10/02 02:40:32;;;;;;;12.07;9.05;;;12.90;99.90;;;;;;5069576;28;20308;-78
2022/10/02 02:43:25;;;;;;;10.32;8.88;;;12.90;99.90;;;;;;5060823;28;20224;-77
2022/10/02 02:46:21;;;;;;;12.50;9.10;;;13.00;99.90;;;;;;5054892;28;20224;-77
2022/10/02 02:49:11;;;;;;;10.38;9.32;;;12.90;99.90;;;;;;5066020;28;21436;-78
2022/10/02 02:52:04;;;;;;;11.32;10.23;;;12.90;99.90;;;;;;5069396;28;20232;-78
2022/10/02 02:55:01;;;;;;;10.70;9.68;;;12.80;99.90;;;;;;5066495;28;20220;-79
2022/10/02 02:57:54;;;;;;;11.82;10.07;;;12.80;99.90;;;;;;5067885;28;20211;-79
2022/10/02 03:00:43;;;;;;;11.15;10.05;;;12.80;99.90;;;;;;5057453;28;20237;-79
2022/10/02 03:03:32;;;;;;;11.27;10.00;;;12.80;99.90;;;;;;5067492;28;20227;-79
2022/10/02 03:06:36;;;;;;;11.77;10.57;;;12.90;99.90;;;;;;5059487;28;20739;-78
2022/10/02 03:09:31;;;;;;;13.20;10.57;;;13.00;99.90;;;;;;5054734;28;20780;-79
2022/10/02 03:12:28;;;;;;;12.10;9.85;;;12.90;99.90;;;;;;5060846;28;20239;-78
2022/10/02 03:15:27;;;;;;;10.85;9.75;;;12.90;99.90;;;;;;5057879;28;20228;-79
2022/10/02 03:18:38;;;;;;;11.27;10.07;;;12.80;99.90;;;;;;5057202;28;20228;-78
2022/10/02 03:21:34;;;;;;;13.00;10.57;;;12.90;99.90;;;;;;5053690;28;20231;-79
2022/10/02 03:24:34;;;;;;;15.02;10.70;;;12.80;99.90;;;;;;5051764;28;20243;-83
2022/10/02 03:27:27;;;;;;;11.68;10.48;;;12.80;99.90;;;;;;5058266;28;20228;-82
2022/10/02 03:30:23;;;;;;;14.65;10.57;;;12.80;99.90;;;;;;5060289;28;20220;-83
2022/10/02 03:33:15;;;;;;;11.88;10.63;;;12.80;99.90;;;;;;5054357;28;20228;-85
2022/10/02 03:36:04;;;;;;;11.80;10.60;;;12.80;99.90;;;;;;5060363;28;20220;-84
2022/10/02 03:38:56;;;;;;;12.55;11.23;;;12.70;99.90;;;;;;5068776;28;20213;-80
2022/10/02 03:42:06;;;;;;;12.15;10.93;;;12.80;99.90;;;;;;5067862;28;20216;-79
2022/10/02 03:44:55;;;;;;;12.23;10.90;;;12.70;99.90;;;;;;5056637;28;20228;-79
2022/10/02 03:47:43;;;;;;;11.93;10.68;;;12.70;99.90;;;;;;5053705;28;20235;-78
2022/10/02 03:50:32;;;;;;;13.15;10.73;;;12.80;99.90;;;;;;5056867;28;20223;-78
2022/10/02 03:53:29;;;;;;;12.50;10.68;;;12.80;99.90;;;;;;5056311;28;20227;-81
2022/10/02 03:56:35;;;;;;;12.43;11.05;;;12.80;99.90;;;;;;5056032;28;20265;-80
2022/10/02 03:59:40;;;;;;;12.02;10.82;;;12.80;99.90;;;;;;5063966;28;20240;-79
2022/10/02 04:02:36;;;;;;;12.05;10.85;;;12.80;99.90;;;;;;5058034;28;20220;-79
2022/10/02 04:05:28;;;;;;;14.40;11.18;;;12.80;99.90;;;;;;5059065;28;20228;-80
2022/10/02 04:08:20;;;;;;;13.65;11.23;;;12.80;99.90;;;;;;5058921;28;20220;-79
2022/10/02 04:11:15;;;;;;;12.00;10.75;;;12.80;99.90;;;;;;5053002;28;20212;-79
2022/10/02 04:14:09;;;;;;;12.98;11.00;;;13.00;99.90;;;;;;5061080;28;20224;-80
2022/10/02 04:17:03;;;;;;;12.68;11.13;;;12.80;99.90;;;;;;5060981;28;20224;-77
2022/10/02 04:19:56;;;;;;;13.50;11.55;;;12.80;99.90;;;;;;5062560;28;20219;-79
2022/10/02 04:22:50;;;;;;;13.80;12.10;;;12.90;99.90;;;;;;5061113;28;20223;-78
2022/10/02 04:25:44;;;;;;;16.42;11.57;;;12.90;99.90;;;;;;5063751;28;20243;-78
2022/10/02 04:28:38;;;;;;;13.25;11.65;;;12.90;99.90;;;;;;5070653;28;20228;-79
2022/10/02 04:31:28;;;;;;;15.10;12.32;;;12.90;99.90;;;;;;5056588;28;20227;-79
2022/10/02 04:34:18;;;;;;;13.88;11.15;;;12.80;99.90;;;;;;5071975;28;20217;-81
2022/10/02 04:37:26;;;;;;;17.40;11.98;;;12.90;99.90;;;;;;5075739;28;20220;-80
2022/10/02 04:40:49;;;;;;;16.67;12.60;;;12.80;99.90;;;;;;5070991;28;20235;-80
2022/10/02 04:43:53;;;;;;;13.60;12.15;;;12.80;99.90;;;;;;5052842;28;20232;-79
2022/10/02 04:46:57;;;;;;;14.00;12.50;;;12.80;99.90;;;;;;5057454;28;20224;-79
2022/10/02 04:50:08;;;;;;;13.80;12.48;;;12.80;99.90;;;;;;5061291;28;20750;-80
2022/10/02 04:53:16;;;;;;;15.60;13.55;;;12.80;99.90;;;;;;5072166;28;20224;-79
2022/10/02 04:56:32;;;;;;;14.90;13.27;;;12.80;99.90;;;;;;5070298;28;20220;-81
2022/10/02 04:59:37;;;;;;;15.10;13.50;;;12.80;99.90;;;;;;5057611;28;20224;-78
2022/10/02 05:02:41;;;;;;;15.40;13.85;;;12.80;99.90;;;;;;5069756;28;20235;-81
2022/10/02 05:05:47;;;;;;;15.88;14.18;;;12.80;99.90;;;;;;5068948;28;20219;-80
2022/10/02 05:08:58;;;;;;;15.95;13.80;;;12.80;99.90;;;;;;5068518;28;20330;-80
2022/10/02 05:12:14;;;;;;;15.57;14.00;;;12.80;99.90;;;;;;5058573;28;20227;-80
2022/10/02 05:15:28;;;;;;;14.20;12.70;;;12.80;99.90;;;;;;5059868;28;20220;-81
2022/10/02 05:18:31;;;;;;;14.43;12.93;;;12.90;99.90;;;;;;5058414;28;20779;-80
2022/10/02 05:21:40;;;;;;;14.50;13.00;;;12.80;99.90;;;;;;5068252;28;20301;-80
2022/10/02 05:24:44;;;;;;;14.27;12.88;;;12.80;99.90;;;;;;5055499;28;20225;-79
2022/10/02 05:27:50;;;;;;;14.43;12.95;;;12.70;99.90;;;;;;5060167;28;20224;-77
2022/10/02 05:30:48;;;;;;;13.85;12.45;;;12.80;99.90;;;;;;5053883;28;20232;-78
2022/10/02 05:33:49;;;;;;;14.43;12.48;;;12.80;99.90;;;;;;5055184;28;20239;-79
2022/10/02 05:37:00;;;;;;;12.65;11.40;;;12.80;99.90;;;;;;5073077;28;20350;-78
2022/10/02 05:39:56;;;;;;;14.70;11.77;;;12.90;99.90;;;;;;5069274;28;20255;-79
2022/10/02 05:42:52;;;;;;;13.32;11.90;;;12.80;99.90;;;;;;5056034;28;20220;-79
2022/10/02 05:45:51;;;;;;;14.35;12.15;;;12.80;99.90;;;;;;5057254;28;20247;-78
2022/10/02 05:48:45;;;;;;;13.35;11.82;;;12.90;99.90;;;;;;5070180;28;20240;-79
2022/10/02 05:51:41;;;;;;;13.32;12.02;;;12.90;99.90;;;;;;5055005;28;20227;-78
2022/10/02 05:54:45;;;;;;;13.88;12.48;;;12.80;99.90;;;;;;5054402;28;20228;-77
2022/10/02 05:57:40;;;;;;;13.38;11.98;;;12.80;99.90;;;;;;5057536;28;20233;-77
2022/10/02 06:00:37;;;;;;;12.27;11.05;;;12.90;99.90;;;;;;5056609;28;20236;-78
2022/10/02 06:03:33;;;;;;;12.95;11.75;;;13.00;99.90;;;;;;5055219;28;20213;-78
2022/10/02 06:06:30;;;;;;;12.38;11.15;;;13.00;99.90;;;;;;5050667;28;20239;-79
2022/10/02 06:09:23;;;;;;;11.93;10.65;;;13.00;99.90;;;;;;5059439;28;20277;-78
2022/10/02 06:12:17;;;;;;;13.20;11.50;;;13.00;99.90;;;;;;5054639;28;20227;-77
2022/10/02 06:15:14;;;;;;;12.57;11.25;;;13.00;99.90;;;;;;5053483;28;20832;-78
2022/10/02 06:18:06;;;;;;;13.80;11.90;;;12.90;99.90;;;;;;5057506;28;20220;-79
2022/10/02 06:20:58;;;;;;;12.93;11.48;;;13.00;99.90;;;;;;5056679;28;20229;-76
2022/10/02 06:23:51;;;;;;;13.13;11.75;;;13.00;99.90;;;;;;5050647;28;20228;-78
2022/10/02 06:26:45;;;;;;;14.93;12.13;;;13.00;99.90;;;;;;5068646;28;20232;-78
2022/10/02 06:29:41;;;;;;;13.85;12.10;;;13.00;99.90;;;;;;5065936;28;20231;-78
2022/10/02 06:32:36;;;;;;;13.40;12.00;;;13.00;99.90;;;;;;5067479;28;20228;-78
2022/10/02 06:35:36;;;;;;;13.80;12.35;;;13.00;99.90;;;;;;5054109;28;20232;-79
2022/10/02 06:38:40;;;;;;;13.25;11.85;;;13.10;99.90;;;;;;5055780;28;20228;-79
2022/10/02 06:41:38;;;;;;;15.32;12.48;;;13.00;99.90;;;;;;5067247;28;20211;-80
2022/10/02 06:44:37;;;;;;;14.48;12.95;;;13.00;99.90;;;;;;5053181;28;20228;-78
2022/10/02 06:47:39;;;;;;;14.90;12.15;;;13.10;99.90;;;;;;5053624;28;20715;-78
2022/10/02 06:50:41;;;;;;;13.18;11.85;;;13.20;99.90;;;;;;5054549;28;20694;-78
2022/10/02 06:53:48;;;;;;;12.52;11.23;;;13.20;99.90;;;;;;5059332;28;20306;-78
2022/10/02 06:56:50;;;;;;;13.75;10.43;;;13.30;99.90;;;;;;5069464;28;20290;-80
2022/10/02 07:00:16;;;;;;;13.35;10.68;;;13.20;99.90;;;;;;5056510;28;20219;-77
2022/10/02 07:03:32;;;;;;;10.50;9.50;;;13.20;99.90;;;;;;5070614;28;20239;-77
2022/10/02 07:06:35;;;;;;;10.30;9.13;;;13.20;99.90;;;;;;5054587;28;20224;-78
2022/10/02 07:09:45;;;;;;;12.48;9.38;;;13.10;99.90;;;;;;5070495;28;21538;-81
2022/10/02 07:12:54;;;;;;;10.45;8.98;;;13.10;99.90;;;;;;5058057;28;20231;-80
2022/10/02 07:16:08;;;;;;;9.68;8.68;;;13.20;99.90;;;;;;5052134;28;20681;-79
2022/10/02 07:19:26;;;;;;;12.75;9.15;;;13.10;99.90;;;;;;5057767;28;20231;-81
2022/10/02 07:22:30;;;;;;;10.30;9.20;;;13.10;99.90;;;;;;5047883;28;20220;-77
2022/10/02 07:25:54;;;;;;;11.05;9.90;;;13.10;99.90;;;;;;5057536;28;20223;-76
2022/10/02 07:28:51;;;;;;;14.10;9.98;;;13.20;99.90;;;;;;5053571;28;20699;-78
2022/10/02 07:31:53;;;;;;;11.35;9.50;;;13.30;99.90;;;;;;5069915;28;20216;-77
2022/10/02 07:34:50;;;;;;;11.45;9.52;;;13.30;99.90;;;;;;5067693;28;20273;-80
2022/10/02 07:37:47;;;;;;;10.95;8.90;;;13.50;99.90;;;;;;5056869;28;20255;-78
2022/10/02 07:40:47;;;;;;;10.63;8.40;;;13.60;99.90;;;;;;5067793;28;20216;-76
2022/10/02 07:43:47;;;;;;;12.77;8.82;;;13.60;99.90;;;;;;5055876;28;20247;-80
2022/10/02 07:46:47;;;;;;;12.15;8.20;;;13.50;99.90;;;;;;5062512;28;20246;-79
2022/10/02 07:49:47;;;;;;;11.10;7.90;;;13.50;99.90;;;;;;5058583;28;20232;-79
2022/10/02 07:52:44;;;;;;;8.45;6.80;;;13.60;99.90;;;;;;5060650;28;20220;-80
2022/10/02 07:55:35;;;;;;;13.00;6.68;;;13.60;99.90;;;;;;5066262;28;20304;-83
2022/10/02 07:58:32;;;;;;;9.27;6.82;;;13.70;99.90;;;;;;5052051;28;20224;-84
2022/10/02 08:01:25;;;;;;;11.20;6.90;;;13.70;99.90;;;;;;5066409;28;20228;-79
2022/10/02 08:04:18;;;;;;;8.43;5.85;;;13.70;99.90;;;;;;5068558;28;20255;-78
2022/10/02 08:07:08;;;;;;;11.23;6.00;;;13.70;99.90;;;;;;5070122;28;20216;-79
2022/10/02 08:10:02;;;;;;;9.18;5.32;;;13.70;99.90;;;;;;5067942;28;20899;-78
2022/10/02 08:12:59;;;;;;;5.35;4.78;;;13.70;99.90;;;;;;5069544;28;20258;-79
2022/10/02 08:15:51;;;;;;;8.70;4.50;;;13.70;99.90;;;;;;5069946;28;20239;-77
2022/10/02 08:18:42;;;;;;;8.70;4.22;;;13.70;99.90;;;;;;5056369;28;20719;-76
2022/10/02 08:21:35;;;;;;;8.80;5.05;;;13.70;99.90;;;;;;5069520;28;20227;-76
2022/10/02 08:24:30;;;;;;;9.18;4.63;;;13.70;99.90;;;;;;5073351;28;20323;-76
2022/10/02 08:27:23;;;;;;;8.82;3.97;;;13.80;99.90;;;;;;5069183;28;22011;-76
2022/10/02 08:30:13;;;;;;;6.28;3.78;;;13.70;99.90;;;;;;5057433;28;20306;-76
2022/10/02 08:33:06;;;;;;;9.32;3.95;;;13.70;99.90;;;;;;5058400;28;20634;-75
2022/10/02 08:36:17;;;;;;;5.47;3.50;;;13.70;99.90;;;;;;5059553;28;20227;-75
2022/10/02 08:39:20;;;;;;;11.60;4.07;;;13.80;99.90;;;;;;5064367;28;20604;-76
2022/10/02 08:42:38;;;;;;;7.07;3.70;;;13.80;99.90;;;;;;5071766;28;20239;-76
2022/10/02 08:45:51;;;;;;;7.75;3.35;;;13.70;99.90;;;;;;5059323;28;20298;-76
2022/10/02 08:49:13;;;;;;;9.88;3.88;;;13.80;99.90;;;;;;5076234;28;20267;-76
2022/10/02 08:52:30;;;;;;;8.98;3.38;;;13.90;99.90;;;;;;5061302;28;20850;-77
2022/10/02 08:55:52;;;;;;;6.88;3.08;;;14.10;99.90;;;;;;5052346;28;20218;-77
2022/10/02 08:59:19;;;;;;;8.13;3.13;;;14.10;99.90;;;;;;5054017;28;21068;-76
2022/10/02 09:02:44;;;;;;;6.47;2.92;;;14.40;99.90;;;;;;5043448;28;20239;-82
2022/10/02 09:06:06;;;;;;;5.00;2.88;;;14.60;99.90;;;;;;5056923;28;20220;-77
2022/10/02 09:09:14;;;;;;;11.85;3.33;;;14.60;99.90;;;;;;5061771;28;21930;-85
2022/10/02 09:12:28;;;;;;;9.30;2.90;;;14.70;99.90;;;;;;5059930;28;20228;-83
2022/10/02 09:15:22;;;;;;;9.32;3.10;;;14.70;99.90;;;;;;5063788;28;20228;-82
2022/10/02 09:18:19;;;;;;;12.02;3.80;;;14.80;99.90;;;;;;5055256;28;20220;-80
2022/10/02 09:21:17;;;;;;;6.25;2.75;;;14.90;99.90;;;;;;5056756;28;20228;-82
2022/10/02 09:24:55;;;;;;;4.70;2.80;;;15.00;99.90;;;;;;5069278;28;20602;-85
2022/10/02 09:28:38;;;;;;;9.05;2.70;;;15.00;99.90;;;;;;5067705;28;20738;-80
2022/10/02 09:32:11;;;;;;;5.50;2.88;;;15.10;99.90;;;;;;5069473;28;20222;-81
2022/10/02 09:35:42;;;;;;;10.65;3.38;;;15.10;99.90;;;;;;5067691;28;20309;-81
2022/10/02 09:39:00;;;;;;;7.28;2.65;;;15.10;99.90;;;;;;5058248;28;20230;-81
2022/10/02 09:42:33;;;;;;;11.45;2.90;;;14.90;99.90;;;;;;5071035;28;20228;-80
2022/10/02 09:45:51;;;;;;;6.95;2.80;;;14.70;99.90;;;;;;5018878;28;20889;-80
2022/10/02 09:49:19;;;;;;;8.50;2.70;;;14.50;99.90;;;;;;5054025;28;20703;-85
2022/10/02 09:52:44;;;;;;;13.18;3.00;;;14.40;99.90;;;;;;5049390;28;20231;-79
2022/10/02 09:56:04;;;;;;;9.48;2.58;;;14.60;99.90;;;;;;5058172;28;20749;-79
2022/10/02 09:59:35;;;;;;;8.77;3.03;;;14.80;99.90;;;;;;5064963;28;20362;-78
2022/10/02 10:02:54;;;;;;;6.75;2.90;;;14.90;99.90;;;;;;5052398;28;20311;-79
2022/10/02 10:06:06;;;;;;;9.70;2.60;;;15.10;99.90;;;;;;5067730;28;20320;-79
2022/10/02 10:09:34;;;;;;;7.60;2.22;;;15.30;99.90;;;;;;5054478;28;20706;-79
2022/10/02 10:12:54;;;;;;;5.40;2.17;;;15.30;99.90;;;;;;5048650;28;20228;-78
2022/10/02 10:16:28;;;;;;;3.58;2.22;;;15.20;99.90;;;;;;5055416;28;20211;-78
2022/10/02 10:19:50;;;;;;;12.90;2.40;;;15.20;99.90;;;;;;5054717;28;21496;-78
2022/10/02 10:22:57;;;;;;;10.73;2.10;;;15.30;99.90;;;;;;5066556;28;20239;-78
2022/10/02 10:26:33;;;;;;;5.30;1.90;;;15.40;99.90;;;;;;5051739;28;20231;-77
2022/10/02 10:29:44;;;;;;;7.72;2.80;;;15.40;99.90;;;;;;4977521;28;20230;-78
2022/10/02 10:33:04;;;;;;;6.28;2.58;;;15.40;99.90;;;;;;5065952;28;20374;-79
2022/10/02 10:40:10;;;;;;;8.82;2.35;;;15.80;99.90;;;;;;5062666;28;20240;-83
2022/10/02 10:43:28;;;;;;;5.47;2.30;;;16.20;99.90;;;;;;5061063;28;20606;-79
2022/10/02 10:46:41;;;;;;;9.95;2.28;;;16.20;99.90;;;;;;5055290;28;20223;-80
2022/10/02 10:50:01;;;;;;;3.15;1.58;;;16.00;99.90;;;;;;5058823;28;20345;-81
2022/10/02 10:53:15;;;;;;;6.47;1.90;;;15.90;99.90;;;;;;5040431;28;20224;-80
2022/10/02 10:56:28;;;;;;;5.03;1.80;;;15.90;99.90;;;;;;5059933;28;20219;-76
2022/10/02 10:59:50;;;;;;;8.30;2.28;;;15.80;99.90;;;;;;5068680;28;20220;-78
2022/10/02 11:03:25;;;;;;;8.93;2.50;;;15.60;99.90;;;;;;5071570;28;20220;-78
2022/10/02 11:07:00;;;;;;;7.70;2.35;;;15.40;99.90;;;;;;5073251;28;20216;-79
2022/10/02 11:10:07;;;;;;;5.53;2.40;;;14.90;99.90;;;;;;5003758;28;20753;-80
2022/10/02 11:13:17;;;;;;;6.88;2.70;;;14.80;99.90;;;;;;5070517;28;20287;-79
2022/10/02 11:16:33;;;;;;;6.90;3.05;;;14.90;99.90;;;;;;5058571;28;20706;-75
2022/10/02 11:19:36;;;;;;;9.70;3.00;;;15.20;99.90;;;;;;5050314;28;20235;-79
2022/10/02 11:23:00;;;;;;;6.53;3.63;;;15.40;99.90;;;;;;5052948;28;20220;-79
2022/10/02 11:26:21;;;;;;;9.82;3.67;;;15.50;99.90;;;;;;5052982;28;20707;-77
2022/10/02 11:29:51;;;;;;;9.77;3.58;;;15.20;99.90;;;;;;5066636;28;20219;-78
2022/10/02 11:33:23;;;;;;;7.30;3.33;;;15.10;99.90;;;;;;5068911;28;20710;-77
2022/10/02 11:36:41;;;;;;;8.63;3.40;;;15.30;99.90;;;;;;5068328;28;20729;-77
2022/10/02 11:40:13;;;;;;;7.88;3.80;;;15.50;99.90;;;;;;5058034;28;20314;-77
2022/10/02 11:43:23;;;;;;;7.85;4.13;;;15.30;99.90;;;;;;5058552;28;20216;-77
2022/10/02 11:46:44;;;;;;;7.35;3.20;;;15.30;99.90;;;;;;5055288;28;20213;-78
2022/10/02 11:50:00;;;;;;;9.20;2.90;;;15.30;99.90;;;;;;5053679;28;20240;-79
2022/10/02 11:53:16;;;;;;;5.13;2.42;;;15.50;99.90;;;;;;5055889;28;20586;-78
2022/10/02 11:56:22;;;;;;;5.45;2.70;;;15.60;99.90;;;;;;5053656;28;22394;-79
2022/10/02 11:59:29;;;;;;;5.53;2.55;;;15.60;99.90;;;;;;5056060;28;20219;-79
2022/10/02 12:02:24;;;;;;;8.60;2.78;;;15.60;99.90;;;;;;5055009;28;20659;-79
2022/10/02 12:05:26;;;;;;;5.28;2.22;;;15.50;99.90;;;;;;5063852;28;20220;-78
2022/10/02 12:08:20;;;;;;;7.25;2.40;;;15.40;99.90;;;;;;5054532;28;20710;-79
2022/10/02 12:11:15;;;;;;;6.53;2.40;;;15.40;99.90;;;;;;5068325;28;20330;-77
2022/10/02 12:14:15;;;;;;;6.85;2.10;;;15.40;99.90;;;;;;5067010;28;20244;-79
2022/10/02 12:17:15;;;;;;;3.65;2.20;;;15.30;99.90;;;;;;5053524;28;20224;-78
2022/10/02 12:27:08;;;;;;;6.93;2.50;;;14.60;99.90;;;;;;5069809;28;20216;-79
2022/10/02 12:30:10;;;;;;;8.15;2.40;;;14.60;99.90;;;;;;5067420;28;20228;-80
2022/10/02 12:33:17;;;;;;;4.65;2.42;;;14.60;99.90;;;;;;5065903;28;20807;-78
2022/10/02 12:36:20;;;;;;;8.75;2.83;;;14.60;99.90;;;;;;5067335;28;20216;-78
2022/10/02 12:39:24;;;;;;;6.75;2.88;;;14.70;99.90;;;;;;5065251;28;20228;-80
2022/10/02 12:42:52;;;;;;;5.57;2.55;;;14.80;99.90;;;;;;5069289;28;20215;-78
2022/10/02 12:46:18;;;;;;;6.22;2.90;;;14.80;99.90;;;;;;5053577;28;20576;-80
2022/10/02 12:49:41;;;;;;;7.60;3.03;;;14.90;99.90;;;;;;5067782;28;20267;-79
2022/10/02 12:53:00;;;;;;;5.10;2.50;;;14.80;99.90;;;;;;5070567;28;20255;-79
2022/10/02 12:56:25;;;;;;;8.07;3.40;;;14.90;99.90;;;;;;5054167;28;20327;-81
2022/10/02 12:59:22;;;;;;;10.15;3.40;;;14.90;99.90;;;;;;5057134;28;20221;-81
2022/10/02 13:02:41;;;;;;;6.35;2.92;;;14.90;99.90;;;;;;5056369;28;20223;-82
2022/10/02 13:06:03;;;;;;;10.23;3.80;;;15.00;99.90;;;;;;5056124;28;20322;-82
2022/10/02 13:09:17;;;;;;;5.65;2.75;;;15.10;99.90;;;;;;5050636;28;20293;-82
2022/10/02 13:12:31;;;;;;;9.25;3.63;;;15.00;99.90;;;;;;5056368;28;20784;-82
2022/10/02 13:15:32;;;;;;;8.35;3.45;;;15.10;99.90;;;;;;5064452;28;20233;-82
2022/10/02 13:18:56;;;;;;;10.85;4.03;;;15.20;99.90;;;;;;5052921;28;20230;-81
2022/10/02 13:21:59;;;;;;;7.20;3.40;;;15.30;99.90;;;;;;5058086;28;20717;-81
2022/10/02 13:25:03;;;;;;;8.27;3.30;;;15.40;99.90;;;;;;5053592;28;20442;-82
2022/10/02 13:28:12;;;;;;;13.95;4.72;;;15.50;99.90;;;;;;5053895;28;20228;-82
2022/10/02 13:31:12;;;;;;;15.15;4.80;;;15.50;99.90;;;;;;5051090;28;20327;-82
2022/10/02 13:34:18;;;;;;;8.05;2.90;;;15.40;99.90;;;;;;5052905;28;20293;-80
2022/10/02 13:37:18;;;;;;;10.40;3.00;;;15.10;99.90;;;;;;5056146;28;20216;-79
2022/10/02 13:40:19;;;;;;;9.05;3.40;;;15.00;99.90;;;;;;5055676;28;20714;-80
2022/10/02 13:43:41;;;;;;;7.68;2.83;;;15.00;99.90;;;;;;5063109;28;20802;-78
2022/10/02 13:46:46;;;;;;;8.07;3.40;;;14.90;99.90;;;;;;5054187;28;20232;-80
2022/10/02 13:49:52;;;;;;;5.00;2.80;;;14.80;99.90;;;;;;5049447;28;20816;-81
2022/10/02 13:52:52;;;;;;;5.95;2.97;;;15.00;99.90;;;;;;5067215;28;20732;-81
2022/10/02 13:55:45;;;;;;;7.90;2.85;;;15.00;99.90;;;;;;5056919;28;20228;-82
2022/10/02 13:58:49;;;;;;;9.52;2.95;;;15.00;99.90;;;;;;5063740;28;20247;-83
2022/10/02 14:01:53;;;;;;;10.98;3.15;;;15.10;99.90;;;;;;5040406;28;20773;-83
2022/10/02 14:05:12;;;;;;;7.30;2.95;;;15.20;99.90;;;;;;5054587;28;20587;-84
2022/10/02 14:08:25;;;;;;;6.57;2.90;;;15.20;99.90;;;;;;5051884;28;20216;-83
2022/10/02 14:11:28;;;;;;;6.85;2.78;;;15.20;99.90;;;;;;5054090;28;20217;-83
2022/10/02 14:14:31;;;;;;;7.15;2.85;;;15.10;99.90;;;;;;5055465;28;20232;-83
2022/10/02 14:17:33;;;;;;;7.45;3.47;;;15.00;99.90;;;;;;5049841;28;20750;-83
2022/10/02 14:20:33;;;;;;;5.93;2.72;;;14.80;99.90;;;;;;5066517;28;20240;-84
2022/10/02 14:23:51;;;;;;;7.60;3.17;;;14.80;99.90;;;;;;5067045;28;20224;-85
2022/10/02 14:26:55;;;;;;;7.53;3.10;;;14.90;99.90;;;;;;5053144;28;20227;-84
2022/10/02 14:29:56;;;;;;;6.38;3.55;;;15.00;99.90;;;;;;5061936;28;20220;-80
2022/10/02 14:33:03;;;;;;;6.82;3.35;;;15.10;99.90;;;;;;5057240;28;20219;-78
2022/10/02 14:36:02;;;;;;;6.50;3.33;;;15.00;99.90;;;;;;5052278;28;20217;-80
2022/10/02 14:39:03;;;;;;;10.23;3.88;;;14.90;99.90;;;;;;5056149;28;20224;-76
2022/10/02 14:42:08;;;;;;;10.55;3.60;;;14.90;99.90;;;;;;5069041;28;20299;-75
2022/10/02 14:45:25;;;;;;;12.40;4.35;;;14.90;99.90;;;;;;5066358;28;20939;-78
2022/10/02 14:48:28;;;;;;;9.32;3.90;;;14.80;99.90;;;;;;5054706;28;20966;-79
2022/10/02 14:51:44;;;;;;;6.32;3.33;;;14.80;99.90;;;;;;5052905;28;20323;-80
2022/10/02 14:54:52;;;;;;;8.15;3.50;;;14.80;99.90;;;;;;5068887;28;20216;-79
2022/10/02 14:57:58;;;;;;;9.43;4.70;;;14.80;99.90;;;;;;5053881;28;20873;-78
2022/10/02 15:01:01;;;;;;;6.95;3.40;;;14.70;99.90;;;;;;5060044;28;20229;-78
2022/10/02 15:04:07;;;;;;;5.93;3.30;;;14.70;99.90;;;;;;5066258;28;20671;-79
2022/10/02 15:07:05;;;;;;;8.52;3.60;;;14.60;99.90;;;;;;5068942;28;20300;-80
2022/10/02 15:10:07;;;;;;;7.53;3.70;;;14.60;99.90;;;;;;5055012;28;20220;-79
2022/10/02 15:12:59;;;;;;;7.13;3.40;;;14.60;99.90;;;;;;5057192;28;20215;-78
2022/10/02 15:19:10;;;;;;;7.85;3.78;;;14.60;99.90;;;;;;5064920;28;20208;-78
2022/10/02 15:22:02;;;;;;;11.20;3.60;;;14.50;99.90;;;;;;5054040;28;20220;-78
2022/10/02 15:24:56;;;;;;;6.93;3.55;;;14.50;99.90;;;;;;5063745;28;20758;-78
2022/10/02 15:27:52;;;;;;;10.27;3.65;;;14.50;99.90;;;;;;5065563;28;20665;-78
2022/10/02 15:30:50;;;;;;;8.70;3.92;;;14.40;99.90;;;;;;5056591;28;20463;-78
2022/10/02 15:33:42;;;;;;;12.80;3.90;;;14.40;99.90;;;;;;5055386;28;20231;-79
2022/10/02 15:37:03;;;;;;;8.30;3.75;;;14.40;99.90;;;;;;5065257;28;20713;-78
2022/10/02 15:40:05;;;;;;;9.73;3.60;;;14.30;99.90;;;;;;5066570;28;20227;-78
2022/10/02 15:42:56;;;;;;;7.70;3.55;;;14.30;99.90;;;;;;5068636;28;20531;-77
2022/10/02 15:46:03;;;;;;;11.10;3.63;;;14.30;99.90;;;;;;5063098;28;20224;-77
2022/10/02 15:49:00;;;;;;;4.82;2.72;;;14.30;99.90;;;;;;5064335;28;20299;-78
2022/10/02 15:52:02;;;;;;;6.93;3.25;;;14.30;99.90;;;;;;5062727;28;20216;-78
2022/10/02 15:55:00;;;;;;;8.98;3.42;;;14.30;99.90;;;;;;5060143;28;20219;-79
2022/10/02 15:58:09;;;;;;;7.15;3.50;;;14.20;99.90;;;;;;5059020;28;20213;-79
2022/10/02 16:01:13;;;;;;;9.00;3.40;;;14.20;99.90;;;;;;5050362;28;20701;-78